Langdon, Kansas
Current Conditions -  °F | °C
As of 12:35 PM on Saturday 25 Oct 2014 (Local Time) from KPTT Reporting Station
Clear Clear  
Wind Chill: 27°   Ceiling: Unl
Heat Index: 27°   Visibility: 10mi
Dew Point: 10°   Wind: 5mph
Humidity: 34%   Direction: 170°S
Pressure: 30.09"   Gusts: NA
Location:  37.8171°N, 98.3602°W
Report Text: KPTT 251735Z AUTO 17004KT 10SM CLR 27/10 A3009 RMK AO2
Loading
Personal Weather Stations






























Interactive Weather Map
Tropical Storm Tracking
New forecast layout! Learn more

10-Day Weather Forecast

Advertisements
Track Severe Weather on mobile